Weather at Stockholm-Arlanda Airport

Public forecast

Using degrees Celsius for public forecast. Weather courtesy of forecast.io.

Current aviation weather report (METAR) for Stockholm-Arlanda Airport

Retrieved 2022/08/10 17:20 UTC (31 minutes ago):

ESSA 101720Z 24011KT CAVOK 23/13 Q1021 NOSIG

Aviation forecast (TAF) for Stockholm-Arlanda Airport

Retrieved 2022/08/10 15:00 UTC (3 hours ago):

TAF ESSA 101430Z 1015/1115 23013KT CAVOK